Time,TemperatureF,DewpointF,PressureIn,WindDirection,WindDirectionDegrees,WindSpeedMPH,WindSpeedGustMPH,Humidity,HourlyPrecipIn,Conditions,Clouds,dailyrainin,SoftwareType,DateUTC
2013-05-09 00:00:00,61.9,53.9,29.00,WNW,299,0.0,0.0,75,0.00,,---,0.00,VWS V13.01,2013-05-09 05:00:00,
2013-05-09 00:06:00,61.9,53.9,29.00,WNW,299,0.0,0.0,75,0.00,,---,0.00,VWS V13.01,2013-05-09 05:06:00,
2013-05-09 00:11:00,61.7,53.7,29.00,WNW,299,0.0,0.0,75,0.00,,---,0.00,VWS V13.01,2013-05-09 05:11:00,
2013-05-09 00:16:00,61.7,53.7,29.00,WNW,299,0.0,0.0,75,0.00,,---,0.00,VWS V13.01,2013-05-09 05:16:00,
2013-05-09 00:21:00,61.7,53.7,29.00,WNW,299,0.0,0.0,75,0.00,,---,0.00,VWS V13.01,2013-05-09 05:21:00,
2013-05-09 00:27:00,61.7,53.7,29.00,WNW,299,0.0,0.0,75,0.00,,---,0.00,VWS V13.01,2013-05-09 05:27:00,
2013-05-09 00:32:00,61.5,53.5,29.00,WNW,299,0.0,0.0,75,0.00,,---,0.00,VWS V13.01,2013-05-09 05:32:00,
2013-05-09 00:37:00,61.5,53.5,28.97,WNW,299,0.0,0.0,75,0.00,,---,0.00,VWS V13.01,2013-05-09 05:37:00,
2013-05-09 00:42:00,61.7,53.7,28.97,WNW,299,0.0,0.0,75,0.00,,---,0.00,VWS V13.01,2013-05-09 05:42:00,
2013-05-09 00:48:00,61.5,53.5,28.97,WNW,299,0.0,0.0,75,0.00,,---,0.00,VWS V13.01,2013-05-09 05:48:00,
2013-05-09 00:53:00,61.5,53.5,28.97,WNW,299,0.0,0.0,75,0.00,,---,0.00,VWS V13.01,2013-05-09 05:53:00,
2013-05-09 00:59:00,61.5,53.5,28.97,WNW,299,0.0,0.0,75,0.00,,---,0.00,VWS V13.01,2013-05-09 05:59:00,
2013-05-09 01:04:00,61.5,53.9,28.97,WNW,299,0.0,0.0,76,0.00,,---,0.00,VWS V13.01,2013-05-09 06:04:00,
2013-05-09 01:10:00,61.5,53.9,28.97,WNW,299,0.0,0.0,76,0.00,,---,0.00,VWS V13.01,2013-05-09 06:10:00,
2013-05-09 01:15:00,61.3,53.7,28.97,WNW,299,0.0,0.0,76,0.00,,---,0.00,VWS V13.01,2013-05-09 06:15:00,
2013-05-09 01:21:00,61.3,53.7,28.97,WNW,299,0.0,0.0,76,0.00,,---,0.00,VWS V13.01,2013-05-09 06:21:00,
2013-05-09 01:27:00,61.2,53.5,28.97,WNW,299,0.0,0.0,76,0.00,,---,0.00,VWS V13.01,2013-05-09 06:27:00,
2013-05-09 01:32:00,61.2,53.9,28.97,WNW,299,0.0,0.0,77,0.00,,---,0.00,VWS V13.01,2013-05-09 06:32:00,
2013-05-09 01:37:00,61.0,53.7,28.97,WNW,299,0.0,0.0,77,0.00,,---,0.00,VWS V13.01,2013-05-09 06:37:00,
2013-05-09 01:42:00,61.0,53.7,28.97,WNW,299,0.0,0.0,77,0.00,,---,0.00,VWS V13.01,2013-05-09 06:42:00,
2013-05-09 01:47:00,61.0,53.7,28.97,WNW,299,0.0,0.0,77,0.00,,---,0.00,VWS V13.01,2013-05-09 06:47:00,
2013-05-09 01:53:00,60.8,53.5,28.97,WNW,299,0.0,0.0,77,0.00,,---,0.00,VWS V13.01,2013-05-09 06:53:00,
2013-05-09 01:59:00,60.8,53.5,28.97,WNW,299,0.0,0.0,77,0.00,,---,0.00,VWS V13.01,2013-05-09 06:59:00,
2013-05-09 02:05:00,60.8,53.9,28.97,WNW,300,0.0,0.0,78,0.00,,---,0.00,VWS V13.01,2013-05-09 07:05:00,
2013-05-09 02:11:00,60.8,53.9,28.97,WNW,300,0.0,0.0,78,0.00,,---,0.00,VWS V13.01,2013-05-09 07:11:00,
2013-05-09 02:16:00,60.8,53.9,28.97,WNW,300,0.0,0.0,78,0.00,,---,0.00,VWS V13.01,2013-05-09 07:16:00,
2013-05-09 02:21:00,60.8,53.9,28.97,WNW,300,0.0,0.0,78,0.00,,---,0.00,VWS V13.01,2013-05-09 07:21:00,
2013-05-09 02:26:00,60.8,53.9,28.97,WNW,300,0.0,0.0,78,0.00,,---,0.00,VWS V13.01,2013-05-09 07:26:00,
2013-05-09 02:32:00,60.8,53.9,28.97,WNW,300,0.0,0.0,78,0.00,,---,0.00,VWS V13.01,2013-05-09 07:32:00,
2013-05-09 02:38:00,60.6,53.7,28.97,WNW,300,0.0,0.0,78,0.00,,---,0.00,VWS V13.01,2013-05-09 07:38:00,
2013-05-09 02:43:00,60.6,53.7,28.97,WNW,300,0.0,0.0,78,0.00,,---,0.00,VWS V13.01,2013-05-09 07:43:00,
2013-05-09 02:49:00,60.6,53.7,28.97,WNW,300,0.0,0.0,78,0.00,,---,0.00,VWS V13.01,2013-05-09 07:49:00,
2013-05-09 02:54:00,60.6,53.7,28.97,WNW,300,0.0,0.0,78,0.00,,---,0.00,VWS V13.01,2013-05-09 07:54:00,
2013-05-09 02:59:00,60.4,53.6,28.97,WNW,300,0.0,0.0,78,0.00,,---,0.00,VWS V13.01,2013-05-09 07:59:00,
2013-05-09 03:05:00,60.4,53.6,28.97,WNW,300,0.0,0.0,78,0.00,,---,0.00,VWS V13.01,2013-05-09 08:05:00,
2013-05-09 03:10:00,60.4,53.6,28.97,WNW,300,0.0,0.0,78,0.00,,---,0.00,VWS V13.01,2013-05-09 08:10:00,
2013-05-09 03:16:00,60.3,53.4,28.97,WNW,300,0.0,0.0,78,0.00,,---,0.00,VWS V13.01,2013-05-09 08:16:00,
2013-05-09 03:21:00,60.3,53.4,28.97,WNW,300,0.0,0.0,78,0.00,,---,0.00,VWS V13.01,2013-05-09 08:21:00,
2013-05-09 03:26:00,60.3,53.4,28.97,WNW,299,0.0,0.0,78,0.00,,---,0.00,VWS V13.01,2013-05-09 08:26:00,
2013-05-09 03:31:00,60.3,53.4,28.97,WNW,299,0.0,0.0,78,0.00,,---,0.00,VWS V13.01,2013-05-09 08:31:00,
2013-05-09 03:36:00,60.3,53.4,28.97,WNW,299,0.0,0.0,78,0.00,,---,0.00,VWS V13.01,2013-05-09 08:36:00,
2013-05-09 03:41:00,60.3,53.4,28.97,WNW,299,0.0,0.0,78,0.00,,---,0.00,VWS V13.01,2013-05-09 08:41:00,
2013-05-09 03:47:00,60.3,53.7,28.97,WNW,299,0.0,0.0,79,0.00,,---,0.00,VWS V13.01,2013-05-09 08:47:00,
2013-05-09 03:52:00,60.3,53.7,28.94,WNW,299,0.0,0.0,79,0.00,,---,0.00,VWS V13.01,2013-05-09 08:52:00,
2013-05-09 03:58:00,60.3,53.7,28.94,WNW,299,0.0,0.0,79,0.00,,---,0.00,VWS V13.01,2013-05-09 08:58:00,
2013-05-09 04:03:00,60.3,53.7,28.94,West,270,0.0,0.0,79,0.00,,---,0.00,VWS V13.01,2013-05-09 09:03:00,
2013-05-09 04:09:00,60.3,53.7,28.94,West,270,0.0,0.0,79,0.00,,---,0.00,VWS V13.01,2013-05-09 09:09:00,
2013-05-09 04:14:00,60.3,53.7,28.94,West,270,0.0,0.0,79,0.00,,---,0.00,VWS V13.01,2013-05-09 09:14:00,
2013-05-09 04:19:00,60.1,53.6,28.94,West,270,0.0,0.0,79,0.00,,---,0.00,VWS V13.01,2013-05-09 09:19:00,
2013-05-09 04:25:00,60.1,53.6,28.94,West,270,0.0,0.0,79,0.00,,---,0.00,VWS V13.01,2013-05-09 09:25:00,
2013-05-09 04:31:00,60.1,53.9,28.94,West,265,0.0,0.0,80,0.00,,---,0.00,VWS V13.01,2013-05-09 09:31:00,
2013-05-09 04:37:00,60.1,53.9,28.94,SSE,150,0.0,0.0,80,0.00,,---,0.00,VWS V13.01,2013-05-09 09:37:00,
2013-05-09 04:42:00,60.1,53.9,28.94,SE,143,0.0,0.0,80,0.00,,---,0.00,VWS V13.01,2013-05-09 09:42:00,
2013-05-09 04:47:00,60.3,54.1,28.97,SE,144,0.0,0.0,80,0.00,,---,0.00,VWS V13.01,2013-05-09 09:47:00,
2013-05-09 04:53:00,60.3,54.1,28.97,SSE,157,0.0,0.0,80,0.00,,---,0.00,VWS V13.01,2013-05-09 09:53:00,
2013-05-09 04:59:00,60.1,54.2,28.97,SE,129,0.0,0.0,81,0.04,,---,0.04,VWS V13.01,2013-05-09 09:59:00,
2013-05-09 05:04:00,60.1,54.2,28.97,SE,139,0.0,0.0,81,0.04,,---,0.04,VWS V13.01,2013-05-09 10:04:00,
2013-05-09 05:09:00,60.1,54.2,28.97,ESE,121,0.0,2.2,81,0.04,,---,0.04,VWS V13.01,2013-05-09 10:09:00,
2013-05-09 05:15:00,60.3,54.8,28.97,ESE,117,0.0,3.1,82,0.04,,---,0.04,VWS V13.01,2013-05-09 10:15:00,
2013-05-09 05:20:00,60.3,54.8,28.97,SE,139,2.2,3.1,82,0.04,,---,0.04,VWS V13.01,2013-05-09 10:20:00,
2013-05-09 05:26:00,60.3,54.8,28.97,SE,138,0.0,0.0,82,0.04,,---,0.04,VWS V13.01,2013-05-09 10:26:00,
2013-05-09 05:32:00,60.3,54.8,28.97,SE,138,0.0,0.0,82,0.04,,---,0.04,VWS V13.01,2013-05-09 10:32:00,
2013-05-09 05:37:00,60.3,54.8,28.97,SE,138,0.0,0.0,82,0.04,,---,0.04,VWS V13.01,2013-05-09 10:37:00,
2013-05-09 05:43:00,60.1,54.9,28.97,SE,138,0.0,0.0,83,0.04,,---,0.04,VWS V13.01,2013-05-09 10:43:00,
2013-05-09 05:49:00,60.1,54.9,28.97,SE,138,0.0,0.0,83,0.04,,---,0.04,VWS V13.01,2013-05-09 10:49:00,
2013-05-09 05:54:00,60.1,54.9,28.97,SE,138,0.0,0.0,83,0.04,,---,0.04,VWS V13.01,2013-05-09 10:54:00,
2013-05-09 06:00:00,60.1,54.9,28.97,SE,138,0.0,0.0,83,0.00,,---,0.04,VWS V13.01,2013-05-09 11:00:00,
2013-05-09 06:05:00,59.9,54.7,28.97,SE,138,0.0,0.0,83,0.00,,---,0.04,VWS V13.01,2013-05-09 11:05:00,
2013-05-09 06:11:00,59.9,54.7,28.97,SE,138,0.0,0.0,83,0.00,,---,0.04,VWS V13.01,2013-05-09 11:11:00,
2013-05-09 06:16:00,59.9,55.1,28.97,SE,138,0.0,0.0,84,0.00,,---,0.04,VWS V13.01,2013-05-09 11:16:00,
2013-05-09 06:21:00,59.9,55.1,28.97,SE,138,0.0,0.0,84,0.00,,---,0.04,VWS V13.01,2013-05-09 11:21:00,
2013-05-09 06:26:00,59.7,54.9,28.97,SE,138,0.0,0.0,84,0.00,,---,0.04,VWS V13.01,2013-05-09 11:26:00,
2013-05-09 06:32:00,59.7,54.9,28.94,SE,138,0.0,0.0,84,0.00,,---,0.04,VWS V13.01,2013-05-09 11:32:00,
2013-05-09 06:37:00,59.7,54.9,28.94,SE,138,0.0,0.0,84,0.00,,---,0.04,VWS V13.01,2013-05-09 11:37:00,
2013-05-09 06:42:00,59.7,54.9,28.94,SE,138,0.0,0.0,84,0.00,,---,0.04,VWS V13.01,2013-05-09 11:42:00,
2013-05-09 06:47:00,59.7,55.2,28.94,SE,138,0.0,0.0,85,0.00,,---,0.04,VWS V13.01,2013-05-09 11:47:00,
2013-05-09 06:53:00,59.7,55.2,28.94,SE,138,0.0,0.0,85,0.00,,---,0.04,VWS V13.01,2013-05-09 11:53:00,
2013-05-09 06:58:00,59.7,55.2,28.94,SE,138,0.0,0.0,85,0.00,,---,0.04,VWS V13.01,2013-05-09 11:58:00,
2013-05-09 07:04:00,59.7,55.2,28.94,SE,138,0.0,0.0,85,0.00,,---,0.04,VWS V13.01,2013-05-09 12:04:00,
2013-05-09 07:09:00,59.7,55.5,28.94,SE,138,0.0,0.0,86,0.00,,---,0.04,VWS V13.01,2013-05-09 12:09:00,
2013-05-09 07:14:00,59.7,55.5,28.94,SE,138,0.0,0.0,86,0.00,,---,0.04,VWS V13.01,2013-05-09 12:14:00,
2013-05-09 07:20:00,59.7,55.5,28.94,SE,138,0.0,0.0,86,0.00,,---,0.04,VWS V13.01,2013-05-09 12:20:00,
2013-05-09 07:25:00,59.7,55.5,28.94,SE,138,0.0,0.0,86,0.00,,---,0.04,VWS V13.01,2013-05-09 12:25:00,
2013-05-09 07:31:00,59.7,55.5,28.94,SE,138,0.0,0.0,86,0.00,,---,0.04,VWS V13.01,2013-05-09 12:31:00,
2013-05-09 07:36:00,59.7,55.8,28.94,SE,138,0.0,0.0,87,0.00,,---,0.04,VWS V13.01,2013-05-09 12:36:00,
2013-05-09 07:41:00,59.9,56.0,28.94,SE,138,0.0,0.0,87,0.00,,---,0.04,VWS V13.01,2013-05-09 12:41:00,
2013-05-09 07:46:00,59.9,56.0,28.94,SE,138,0.0,0.0,87,0.00,,---,0.04,VWS V13.01,2013-05-09 12:46:00,
2013-05-09 07:51:00,59.9,56.0,28.94,SE,138,0.0,0.0,87,0.00,,---,0.04,VWS V13.01,2013-05-09 12:51:00,
2013-05-09 07:56:00,59.9,56.0,28.94,SE,138,0.0,0.0,87,0.08,,---,0.12,VWS V13.01,2013-05-09 12:56:00,
2013-05-09 08:01:00,60.1,56.2,28.94,SE,138,0.0,0.0,87,0.08,,---,0.12,VWS V13.01,2013-05-09 13:01:00,
2013-05-09 08:07:00,60.1,56.2,28.94,SE,138,0.0,0.0,87,0.08,,---,0.12,VWS V13.01,2013-05-09 13:07:00,
2013-05-09 08:12:00,60.1,56.5,28.94,SE,138,0.0,0.0,88,0.08,,---,0.12,VWS V13.01,2013-05-09 13:12:00,
2013-05-09 08:18:00,60.1,56.5,28.94,SE,138,0.0,0.0,88,0.08,,---,0.12,VWS V13.01,2013-05-09 13:18:00,
2013-05-09 08:24:00,60.1,56.5,28.94,SE,138,0.0,0.0,88,0.08,,---,0.12,VWS V13.01,2013-05-09 13:24:00,
2013-05-09 08:29:00,60.3,56.7,28.94,SE,138,0.0,0.0,88,0.08,,---,0.12,VWS V13.01,2013-05-09 13:29:00,
2013-05-09 08:35:00,60.3,56.7,28.94,SE,138,0.0,0.0,88,0.08,,---,0.12,VWS V13.01,2013-05-09 13:35:00,
2013-05-09 08:40:00,60.4,56.9,28.94,SE,138,0.0,0.0,88,0.08,,---,0.12,VWS V13.01,2013-05-09 13:40:00,
2013-05-09 08:46:00,60.4,57.2,28.94,SE,138,0.0,0.0,89,0.08,,---,0.12,VWS V13.01,2013-05-09 13:46:00,
2013-05-09 08:51:00,60.4,57.2,28.94,SE,138,0.0,0.0,89,0.08,,---,0.12,VWS V13.01,2013-05-09 13:51:00,
2013-05-09 08:56:00,60.4,57.2,28.94,SE,138,0.0,0.0,89,0.00,,---,0.12,VWS V13.01,2013-05-09 13:56:00,
2013-05-09 09:02:00,60.6,57.4,28.94,SE,138,0.0,0.0,89,0.00,,---,0.12,VWS V13.01,2013-05-09 14:02:00,
2013-05-09 09:07:00,60.6,57.4,28.94,SE,138,0.0,0.0,89,0.00,,---,0.12,VWS V13.01,2013-05-09 14:07:00,
2013-05-09 09:13:00,60.6,57.7,28.94,SE,138,0.0,0.0,90,0.00,,---,0.12,VWS V13.01,2013-05-09 14:13:00,
2013-05-09 09:18:00,61.0,58.0,28.94,SE,138,0.0,0.0,90,0.00,,---,0.12,VWS V13.01,2013-05-09 14:18:00,
2013-05-09 09:23:00,61.2,58.2,28.94,SE,138,0.0,0.0,90,0.00,,---,0.12,VWS V13.01,2013-05-09 14:23:00,
2013-05-09 09:28:00,61.3,58.4,28.94,SE,138,0.0,0.0,90,0.00,,---,0.12,VWS V13.01,2013-05-09 14:28:00,
2013-05-09 09:33:00,61.7,58.7,28.94,SE,137,0.0,0.0,90,0.00,,---,0.12,VWS V13.01,2013-05-09 14:33:00,
2013-05-09 09:38:00,61.9,59.2,28.94,SE,137,0.0,0.0,91,0.00,,---,0.12,VWS V13.01,2013-05-09 14:38:00,
2013-05-09 09:43:00,62.2,59.6,28.94,SE,137,0.0,0.0,91,0.00,,---,0.12,VWS V13.01,2013-05-09 14:43:00,
2013-05-09 09:49:00,62.4,59.8,28.94,SE,137,0.0,0.0,91,0.00,,---,0.12,VWS V13.01,2013-05-09 14:49:00,
2013-05-09 09:55:00,62.6,59.9,28.94,SE,137,0.0,0.0,91,0.00,,---,0.12,VWS V13.01,2013-05-09 14:55:00,
2013-05-09 10:00:00,62.8,60.1,28.94,SE,137,0.0,0.0,91,0.00,,---,0.12,VWS V13.01,2013-05-09 15:00:00,
2013-05-09 10:06:00,62.8,60.1,28.94,SE,137,0.0,0.0,91,0.00,,---,0.12,VWS V13.01,2013-05-09 15:06:00,
2013-05-09 10:11:00,63.0,60.3,28.94,SE,137,0.0,0.0,91,0.00,,---,0.12,VWS V13.01,2013-05-09 15:11:00,
2013-05-09 10:16:00,63.0,60.3,28.94,SSE,152,0.0,0.0,91,0.00,,---,0.12,VWS V13.01,2013-05-09 15:16:00,
2013-05-09 10:21:00,63.0,60.3,28.94,SE,138,0.0,0.0,91,0.00,,---,0.12,VWS V13.01,2013-05-09 15:21:00,
2013-05-09 10:27:00,62.8,60.1,28.94,SE,138,0.0,0.0,91,0.00,,---,0.12,VWS V13.01,2013-05-09 15:27:00,
2013-05-09 10:33:00,62.8,60.1,28.94,SE,138,0.0,0.0,91,0.00,,---,0.12,VWS V13.01,2013-05-09 15:33:00,
2013-05-09 10:38:00,62.8,60.1,28.94,SE,138,0.0,0.0,91,0.00,,---,0.12,VWS V13.01,2013-05-09 15:38:00,
2013-05-09 10:43:00,63.0,60.0,28.94,SE,138,0.0,0.0,90,0.00,,---,0.12,VWS V13.01,2013-05-09 15:43:00,
2013-05-09 10:49:00,63.0,60.0,28.94,SE,138,0.0,0.0,90,0.00,,---,0.12,VWS V13.01,2013-05-09 15:49:00,
2013-05-09 10:55:00,63.1,60.2,28.94,SE,138,0.0,0.0,90,0.00,,---,0.12,VWS V13.01,2013-05-09 15:55:00,
2013-05-09 11:01:00,63.3,60.3,28.94,SE,138,0.0,0.0,90,0.00,,---,0.12,VWS V13.01,2013-05-09 16:01:00,
2013-05-09 11:06:00,63.3,60.3,28.94,SE,134,0.0,0.0,90,0.00,,---,0.12,VWS V13.01,2013-05-09 16:06:00,
2013-05-09 11:12:00,63.5,60.5,28.94,SSE,159,0.0,0.0,90,0.00,,---,0.12,VWS V13.01,2013-05-09 16:12:00,
2013-05-09 11:17:00,63.5,60.5,28.94,SSE,159,0.0,0.0,90,0.00,,---,0.12,VWS V13.01,2013-05-09 16:17:00,
2013-05-09 11:23:00,63.9,60.9,28.94,ESE,112,0.0,0.0,90,0.00,,---,0.12,VWS V13.01,2013-05-09 16:23:00,
2013-05-09 11:29:00,64.2,61.2,28.94,South,188,0.0,0.0,90,0.00,,---,0.12,VWS V13.01,2013-05-09 16:29:00,
2013-05-09 11:34:00,64.8,61.8,28.94,WSW,255,0.0,0.0,90,0.00,,---,0.12,VWS V13.01,2013-05-09 16:34:00,
2013-05-09 11:39:00,64.9,61.9,28.94,SE,131,2.7,3.1,90,0.00,,---,0.12,VWS V13.01,2013-05-09 16:39:00,
2013-05-09 11:44:00,65.1,61.8,28.94,ESE,123,2.7,2.7,89,0.00,,---,0.12,VWS V13.01,2013-05-09 16:44:00,
2013-05-09 11:49:00,65.5,62.2,28.94,SE,145,2.7,2.7,89,0.00,,---,0.12,VWS V13.01,2013-05-09 16:49:00,
2013-05-09 11:55:00,65.5,62.2,28.94,SE,128,3.1,3.6,89,0.00,,---,0.12,VWS V13.01,2013-05-09 16:55:00,
2013-05-09 12:00:00,65.5,61.8,28.94,SE,140,2.7,3.1,88,0.00,,---,0.12,VWS V13.01,2013-05-09 17:00:00,
2013-05-09 12:05:00,65.5,61.8,28.94,SSE,153,2.7,2.7,88,0.00,,---,0.12,VWS V13.01,2013-05-09 17:05:00,
2013-05-09 12:10:00,65.8,62.2,28.94,SSE,161,0.0,0.0,88,0.00,,---,0.12,VWS V13.01,2013-05-09 17:10:00,
2013-05-09 12:16:00,65.8,61.9,28.94,SE,132,0.0,0.0,87,0.00,,---,0.12,VWS V13.01,2013-05-09 17:16:00,
2013-05-09 12:21:00,65.8,61.5,28.94,SSE,149,2.2,2.2,86,0.00,,---,0.12,VWS V13.01,2013-05-09 17:21:00,
2013-05-09 12:26:00,66.0,61.7,28.94,SSE,154,0.0,0.0,86,0.00,,---,0.12,VWS V13.01,2013-05-09 17:26:00,
2013-05-09 12:32:00,66.2,61.6,28.94,SSE,161,0.0,0.0,85,0.00,,---,0.12,VWS V13.01,2013-05-09 17:32:00,
2013-05-09 12:37:00,66.4,61.1,28.91,ESE,117,0.0,0.0,83,0.00,,---,0.12,VWS V13.01,2013-05-09 17:37:00,
2013-05-09 12:43:00,66.9,61.2,28.91,ESE,111,0.0,3.1,82,0.04,,---,0.16,VWS V13.01,2013-05-09 17:43:00,
2013-05-09 12:48:00,67.1,60.7,28.91,SSE,158,3.1,3.1,80,0.04,,---,0.16,VWS V13.01,2013-05-09 17:48:00,
2013-05-09 12:54:00,67.3,60.2,28.91,SE,132,3.6,3.6,78,0.04,,---,0.16,VWS V13.01,2013-05-09 17:54:00,
2013-05-09 13:00:00,67.1,57.0,28.91,ESE,120,3.6,4.0,70,0.04,,---,0.16,VWS V13.01,2013-05-09 18:00:00,
2013-05-09 13:05:00,67.3,56.8,28.91,SE,133,2.2,3.1,69,0.04,,---,0.16,VWS V13.01,2013-05-09 18:05:00,
2013-05-09 13:11:00,67.5,56.1,28.91,ESE,119,2.7,2.7,67,0.04,,---,0.16,VWS V13.01,2013-05-09 18:11:00,
2013-05-09 13:16:00,67.6,55.9,28.91,SE,140,3.6,5.4,66,0.04,,---,0.16,VWS V13.01,2013-05-09 18:16:00,
2013-05-09 13:21:00,68.0,55.8,28.91,SE,135,0.0,0.0,65,0.04,,---,0.16,VWS V13.01,2013-05-09 18:21:00,
2013-05-09 13:26:00,68.5,56.3,28.91,SE,141,3.1,3.1,65,0.04,,---,0.16,VWS V13.01,2013-05-09 18:26:00,
2013-05-09 13:32:00,69.3,56.6,28.91,South,172,4.9,4.9,64,0.04,,---,0.16,VWS V13.01,2013-05-09 18:32:00,
2013-05-09 13:37:00,70.0,56.4,28.91,SSE,154,2.2,2.2,62,0.04,,---,0.16,VWS V13.01,2013-05-09 18:37:00,
2013-05-09 13:42:00,70.3,55.3,28.91,ESE,119,4.9,4.9,59,0.00,,---,0.16,VWS V13.01,2013-05-09 18:42:00,
2013-05-09 13:47:00,70.0,53.1,28.91,SSW,195,0.0,2.7,55,0.00,,---,0.16,VWS V13.01,2013-05-09 18:47:00,
2013-05-09 13:52:00,69.4,52.1,28.91,SE,144,0.0,0.0,54,0.00,,---,0.16,VWS V13.01,2013-05-09 18:52:00,
2013-05-09 13:57:00,68.7,51.4,28.91,SE,141,0.0,0.0,54,0.00,,---,0.16,VWS V13.01,2013-05-09 18:57:00,
2013-05-09 14:03:00,68.2,51.4,28.91,SE,135,0.0,0.0,55,0.00,,---,0.16,VWS V13.01,2013-05-09 19:03:00,
2013-05-09 14:08:00,67.8,52.0,28.91,SSE,167,0.0,0.0,57,0.00,,---,0.16,VWS V13.01,2013-05-09 19:08:00,
2013-05-09 14:14:00,67.8,53.4,28.91,South,186,0.0,0.0,60,0.00,,---,0.16,VWS V13.01,2013-05-09 19:14:00,
2013-05-09 14:19:00,67.8,53.9,28.91,South,182,0.0,0.0,61,0.00,,---,0.16,VWS V13.01,2013-05-09 19:19:00,
2013-05-09 14:25:00,67.8,53.9,28.91,SW,235,0.0,0.0,61,0.00,,---,0.16,VWS V13.01,2013-05-09 19:25:00,
2013-05-09 14:31:00,67.8,54.3,28.91,SSW,200,0.0,0.0,62,0.00,,---,0.16,VWS V13.01,2013-05-09 19:31:00,
2013-05-09 14:36:00,67.6,54.2,28.91,South,173,0.0,0.0,62,0.00,,---,0.16,VWS V13.01,2013-05-09 19:36:00,
2013-05-09 14:42:00,67.5,54.0,28.91,East,84,0.0,0.0,62,0.00,,---,0.16,VWS V13.01,2013-05-09 19:42:00,
2013-05-09 14:47:00,67.5,54.4,28.91,SE,137,0.0,0.0,63,0.00,,---,0.16,VWS V13.01,2013-05-09 19:47:00,
2013-05-09 14:53:00,67.3,54.3,28.88,SE,137,0.0,0.0,63,0.00,,---,0.16,VWS V13.01,2013-05-09 19:53:00,
2013-05-09 14:59:00,67.5,55.3,28.88,SE,137,0.0,0.0,65,0.00,,---,0.16,VWS V13.01,2013-05-09 19:59:00,
2013-05-09 15:04:00,67.5,55.7,28.88,SE,137,0.0,0.0,66,0.00,,---,0.16,VWS V13.01,2013-05-09 20:04:00,
2013-05-09 15:10:00,67.5,56.1,28.88,SE,137,0.0,0.0,67,0.00,,---,0.16,VWS V13.01,2013-05-09 20:10:00,
2013-05-09 15:15:00,67.5,56.1,28.88,SE,138,0.0,0.0,67,0.00,,---,0.16,VWS V13.01,2013-05-09 20:15:00,
2013-05-09 15:21:00,67.5,56.5,28.88,SE,138,0.0,0.0,68,0.00,,---,0.16,VWS V13.01,2013-05-09 20:21:00,
2013-05-09 15:27:00,67.3,56.4,28.88,SE,138,0.0,0.0,68,0.00,,---,0.16,VWS V13.01,2013-05-09 20:27:00,
2013-05-09 15:32:00,67.1,56.2,28.88,SE,138,0.0,0.0,68,0.00,,---,0.16,VWS V13.01,2013-05-09 20:32:00,
2013-05-09 15:38:00,66.9,56.0,28.88,SE,139,0.0,0.0,68,0.00,,---,0.16,VWS V13.01,2013-05-09 20:38:00,
2013-05-09 15:43:00,66.9,56.4,28.88,SE,139,0.0,0.0,69,0.00,,---,0.16,VWS V13.01,2013-05-09 20:43:00,
2013-05-09 15:49:00,66.9,56.8,28.88,SE,139,0.0,0.0,70,0.00,,---,0.16,VWS V13.01,2013-05-09 20:49:00,
2013-05-09 15:54:00,66.9,56.8,28.88,SE,139,0.0,0.0,70,0.00,,---,0.16,VWS V13.01,2013-05-09 20:54:00,
2013-05-09 16:00:00,67.1,56.6,28.88,SE,132,0.0,0.0,69,0.00,,---,0.16,VWS V13.01,2013-05-09 21:00:00,
2013-05-09 16:06:00,67.3,56.4,28.88,SE,132,0.0,0.0,68,0.00,,---,0.16,VWS V13.01,2013-05-09 21:06:00,
2013-05-09 16:11:00,67.5,56.5,28.88,SE,124,0.0,0.0,68,0.00,,---,0.16,VWS V13.01,2013-05-09 21:11:00,
2013-05-09 16:17:00,67.8,56.5,28.88,SE,133,0.0,0.0,67,0.00,,---,0.16,VWS V13.01,2013-05-09 21:17:00,
2013-05-09 16:23:00,68.0,55.8,28.85,SE,131,0.0,2.2,65,0.00,,---,0.16,VWS V13.01,2013-05-09 21:23:00,
2013-05-09 16:28:00,68.2,56.0,28.85,SSE,150,0.0,0.0,65,0.00,,---,0.16,VWS V13.01,2013-05-09 21:28:00,
2013-05-09 16:34:00,68.4,56.2,28.85,SW,232,0.0,0.0,65,0.00,,---,0.16,VWS V13.01,2013-05-09 21:34:00,
2013-05-09 16:39:00,68.2,55.5,28.85,WSW,242,0.0,0.0,64,0.00,,---,0.16,VWS V13.01,2013-05-09 21:39:00,
2013-05-09 16:45:00,68.4,55.3,28.85,ESE,121,0.0,4.9,63,0.00,,---,0.16,VWS V13.01,2013-05-09 21:45:00,
2013-05-09 16:50:00,68.5,54.1,28.85,ESE,122,3.1,3.1,60,0.00,,---,0.16,VWS V13.01,2013-05-09 21:50:00,
2013-05-09 16:55:00,68.5,52.7,28.85,ESE,118,3.6,3.6,57,0.00,,---,0.16,VWS V13.01,2013-05-09 21:55:00,
2013-05-09 17:00:00,68.5,52.2,28.85,SE,139,2.2,3.6,56,0.00,,---,0.16,VWS V13.01,2013-05-09 22:00:00,
2013-05-09 17:05:00,68.5,52.2,28.82,SSW,195,0.0,0.0,56,0.00,,---,0.16,VWS V13.01,2013-05-09 22:05:00,
2013-05-09 17:10:00,68.5,51.8,28.82,SE,137,2.2,2.2,55,0.00,,---,0.16,VWS V13.01,2013-05-09 22:10:00,
2013-05-09 17:16:00,68.4,50.6,28.82,WSW,245,5.8,7.2,53,0.00,,---,0.16,VWS V13.01,2013-05-09 22:16:00,
2013-05-09 17:21:00,67.5,50.2,28.85,WSW,249,4.0,6.3,54,0.00,,---,0.16,VWS V13.01,2013-05-09 22:21:00,
2013-05-09 17:26:00,66.7,50.1,28.85,NNW,331,2.7,2.7,55,0.00,,---,0.16,VWS V13.01,2013-05-09 22:26:00,
2013-05-09 17:31:00,66.2,51.0,28.85,WSW,250,0.0,2.7,58,0.00,,---,0.16,VWS V13.01,2013-05-09 22:31:00,
2013-05-09 17:37:00,65.7,51.9,28.85,North,353,0.0,2.7,61,0.00,,---,0.16,VWS V13.01,2013-05-09 22:37:00,
2013-05-09 17:42:00,65.5,52.6,28.85,WSW,245,2.2,3.6,63,0.00,,---,0.16,VWS V13.01,2013-05-09 22:42:00,
2013-05-09 17:47:00,65.1,52.7,28.85,WNW,292,0.0,0.0,64,0.00,,---,0.16,VWS V13.01,2013-05-09 22:47:00,
2013-05-09 17:52:00,65.1,52.7,28.85,NW,325,0.0,2.7,64,0.00,,---,0.16,VWS V13.01,2013-05-09 22:52:00,
2013-05-09 17:57:00,65.1,53.1,28.85,SSW,205,0.0,0.0,65,0.00,,---,0.16,VWS V13.01,2013-05-09 22:57:00,
2013-05-09 18:02:00,64.9,52.9,28.85,NW,309,3.6,3.6,65,0.00,,---,0.16,VWS V13.01,2013-05-09 23:02:00,
2013-05-09 18:08:00,64.9,52.9,28.85,WNW,300,2.7,3.1,65,0.00,,---,0.16,VWS V13.01,2013-05-09 23:08:00,
2013-05-09 18:13:00,64.8,52.7,28.85,NW,308,4.0,4.0,65,0.00,,---,0.16,VWS V13.01,2013-05-09 23:13:00,
2013-05-09 18:18:00,64.6,53.0,28.85,NW,305,0.0,0.0,66,0.00,,---,0.16,VWS V13.01,2013-05-09 23:18:00,
2013-05-09 18:23:00,64.4,53.2,28.85,WNW,299,0.0,3.6,67,0.00,,---,0.16,VWS V13.01,2013-05-09 23:23:00,
2013-05-09 18:29:00,64.2,53.5,28.85,NW,307,0.0,2.7,68,0.00,,---,0.16,VWS V13.01,2013-05-09 23:29:00,
2013-05-09 18:34:00,64.0,53.3,28.82,NW,316,0.0,0.0,68,0.00,,---,0.16,VWS V13.01,2013-05-09 23:34:00,
2013-05-09 18:40:00,63.9,53.1,28.82,NNW,337,0.0,0.0,68,0.00,,---,0.16,VWS V13.01,2013-05-09 23:40:00,
2013-05-09 18:45:00,63.9,53.5,28.82,NNW,331,0.0,2.2,69,0.00,,---,0.16,VWS V13.01,2013-05-09 23:45:00,
2013-05-09 18:50:00,63.7,53.3,28.82,NW,325,0.0,0.0,69,0.00,,---,0.16,VWS V13.01,2013-05-09 23:50:00,
2013-05-09 18:55:00,63.7,53.3,28.82,NNW,327,0.0,0.0,69,0.00,,---,0.16,VWS V13.01,2013-05-09 23:55:00,
2013-05-09 19:01:00,63.7,53.3,28.82,NW,312,0.0,0.0,69,0.00,,---,0.16,VWS V13.01,2013-05-10 00:01:00,
2013-05-09 19:06:00,63.9,53.5,28.82,NW,309,0.0,0.0,69,0.00,,---,0.16,VWS V13.01,2013-05-10 00:06:00,
2013-05-09 19:12:00,63.9,53.5,28.82,West,268,0.0,0.0,69,0.00,,---,0.16,VWS V13.01,2013-05-10 00:12:00,
2013-05-09 19:17:00,63.9,53.5,28.85,WNW,283,0.0,0.0,69,0.00,,---,0.16,VWS V13.01,2013-05-10 00:17:00,
2013-05-09 19:22:00,63.9,53.5,28.85,NW,319,0.0,0.0,69,0.00,,---,0.16,VWS V13.01,2013-05-10 00:22:00,
2013-05-09 19:27:00,63.9,53.9,28.85,NW,319,0.0,0.0,70,0.00,,---,0.16,VWS V13.01,2013-05-10 00:27:00,
2013-05-09 19:33:00,63.7,54.1,28.85,NW,319,0.0,0.0,71,0.00,,---,0.16,VWS V13.01,2013-05-10 00:33:00,
2013-05-09 19:38:00,63.7,54.1,28.85,NW,319,0.0,0.0,71,0.00,,---,0.16,VWS V13.01,2013-05-10 00:38:00,
2013-05-09 19:43:00,63.5,54.3,28.85,NW,316,0.0,0.0,72,0.00,,---,0.16,VWS V13.01,2013-05-10 00:43:00,
2013-05-09 19:48:00,63.5,54.3,28.85,NW,316,0.0,0.0,72,0.00,,---,0.16,VWS V13.01,2013-05-10 00:48:00,
2013-05-09 19:53:00,63.3,54.5,28.85,NW,318,0.0,0.0,73,0.00,,---,0.16,VWS V13.01,2013-05-10 00:53:00,
2013-05-09 19:58:00,63.3,54.5,28.85,NW,318,0.0,0.0,73,0.00,,---,0.16,VWS V13.01,2013-05-10 00:58:00,
2013-05-09 20:04:00,63.1,54.7,28.85,NW,318,0.0,0.0,74,0.00,,---,0.16,VWS V13.01,2013-05-10 01:04:00,
2013-05-09 20:09:00,63.1,55.1,28.85,NW,318,0.0,0.0,75,0.00,,---,0.16,VWS V13.01,2013-05-10 01:09:00,
2013-05-09 20:15:00,63.1,55.5,28.85,NW,318,0.0,0.0,76,0.00,,---,0.16,VWS V13.01,2013-05-10 01:15:00,
2013-05-09 20:20:00,63.0,55.3,28.85,NW,318,0.0,0.0,76,0.00,,---,0.16,VWS V13.01,2013-05-10 01:20:00,
2013-05-09 20:26:00,63.0,55.7,28.85,NW,318,0.0,0.0,77,0.00,,---,0.16,VWS V13.01,2013-05-10 01:26:00,
2013-05-09 20:32:00,63.0,55.7,28.85,NW,318,0.0,0.0,77,0.00,,---,0.16,VWS V13.01,2013-05-10 01:32:00,
2013-05-09 20:37:00,63.0,56.0,28.85,NW,318,0.0,0.0,78,0.00,,---,0.16,VWS V13.01,2013-05-10 01:37:00,
2013-05-09 20:43:00,63.0,56.0,28.85,NW,318,0.0,0.0,78,0.00,,---,0.16,VWS V13.01,2013-05-10 01:43:00,
2013-05-09 20:48:00,63.0,56.0,28.85,NW,318,0.0,0.0,78,0.00,,---,0.16,VWS V13.01,2013-05-10 01:48:00,
2013-05-09 20:53:00,63.0,56.3,28.85,NW,318,0.0,0.0,79,0.00,,---,0.16,VWS V13.01,2013-05-10 01:53:00,
2013-05-09 20:58:00,62.8,56.2,28.85,NW,318,0.0,0.0,79,0.00,,---,0.16,VWS V13.01,2013-05-10 01:58:00,
2013-05-09 21:04:00,62.8,56.2,28.82,NW,318,0.0,0.0,79,0.00,,---,0.16,VWS V13.01,2013-05-10 02:04:00,
2013-05-09 21:10:00,62.8,56.2,28.82,NW,318,0.0,0.0,79,0.00,,---,0.16,VWS V13.01,2013-05-10 02:10:00,
2013-05-09 21:15:00,62.6,56.3,28.82,NW,318,0.0,0.0,80,0.00,,---,0.16,VWS V13.01,2013-05-10 02:15:00,
2013-05-09 21:21:00,62.6,56.3,28.85,NW,318,0.0,0.0,80,0.00,,---,0.16,VWS V13.01,2013-05-10 02:21:00,
2013-05-09 21:26:00,62.6,56.3,28.85,NW,306,0.0,0.0,80,0.00,,---,0.16,VWS V13.01,2013-05-10 02:26:00,
2013-05-09 21:32:00,62.4,56.2,28.85,NW,307,0.0,0.0,80,0.00,,---,0.16,VWS V13.01,2013-05-10 02:32:00,
2013-05-09 21:37:00,62.4,56.5,28.85,NW,307,0.0,0.0,81,0.00,,---,0.16,VWS V13.01,2013-05-10 02:37:00,
2013-05-09 21:43:00,62.2,56.3,28.85,NW,306,0.0,0.0,81,0.00,,---,0.16,VWS V13.01,2013-05-10 02:43:00,
2013-05-09 21:49:00,62.2,56.3,28.85,NW,324,0.0,0.0,81,0.00,,---,0.16,VWS V13.01,2013-05-10 02:49:00,
2013-05-09 21:54:00,62.1,56.2,28.85,NW,320,0.0,0.0,81,0.00,,---,0.16,VWS V13.01,2013-05-10 02:54:00,
2013-05-09 21:59:00,62.1,56.2,28.85,WNW,302,0.0,0.0,81,0.00,,---,0.16,VWS V13.01,2013-05-10 02:59:00,
2013-05-09 22:04:00,61.9,56.3,28.85,NW,314,0.0,0.0,82,0.00,,---,0.16,VWS V13.01,2013-05-10 03:04:00,
2013-05-09 22:10:00,61.9,56.3,28.85,NW,313,0.0,0.0,82,0.00,,---,0.16,VWS V13.01,2013-05-10 03:10:00,
2013-05-09 22:15:00,61.7,56.2,28.85,NW,315,2.2,3.1,82,0.00,,---,0.16,VWS V13.01,2013-05-10 03:15:00,
2013-05-09 22:20:00,61.5,56.0,28.85,NW,321,0.0,0.0,82,0.00,,---,0.16,VWS V13.01,2013-05-10 03:20:00,
2013-05-09 22:25:00,61.3,55.8,28.85,NW,313,0.0,0.0,82,0.00,,---,0.16,VWS V13.01,2013-05-10 03:25:00,
2013-05-09 22:30:00,61.3,56.1,28.85,WNW,292,3.1,3.6,83,0.00,,---,0.16,VWS V13.01,2013-05-10 03:30:00,
2013-05-09 22:36:00,61.2,56.0,28.85,NNW,335,0.0,0.0,83,0.00,,---,0.16,VWS V13.01,2013-05-10 03:36:00,
2013-05-09 22:41:00,61.0,55.8,28.85,NW,308,0.0,0.0,83,0.00,,---,0.16,VWS V13.01,2013-05-10 03:41:00,
2013-05-09 22:46:00,61.0,55.8,28.85,NW,308,3.1,3.1,83,0.00,,---,0.16,VWS V13.01,2013-05-10 03:46:00,
2013-05-09 22:51:00,60.8,55.6,28.85,NW,304,0.0,4.0,83,0.00,,---,0.16,VWS V13.01,2013-05-10 03:51:00,
2013-05-09 22:56:00,60.8,55.6,28.85,NW,311,2.2,2.7,83,0.00,,---,0.16,VWS V13.01,2013-05-10 03:56:00,
2013-05-09 23:01:00,60.8,55.6,28.85,NW,314,3.6,3.6,83,0.00,,---,0.16,VWS V13.01,2013-05-10 04:01:00,
2013-05-09 23:02:00,60.8,55.6,28.88,NW,304,4.5,4.5,83,0.00,,---,0.16,VWS V13.01,2013-05-10 04:02:00,
2013-05-09 23:07:00,60.6,55.4,28.88,WNW,302,0.0,0.0,83,0.00,,---,0.16,VWS V13.01,2013-05-10 04:07:00,
2013-05-09 23:09:00,60.6,55.4,28.88,NW,308,0.0,0.0,83,0.00,,---,0.16,VWS V13.01,2013-05-10 04:09:00,
2013-05-09 23:14:00,60.6,55.4,28.88,NNW,335,0.0,2.7,83,0.00,,---,0.16,VWS V13.01,2013-05-10 04:14:00,
2013-05-09 23:17:00,60.6,55.4,28.88,NW,321,0.0,2.2,83,0.00,,---,0.16,VWS V13.01,2013-05-10 04:17:00,
2013-05-09 23:22:00,60.4,55.3,28.88,NW,304,0.0,3.6,83,0.00,,---,0.16,VWS V13.01,2013-05-10 04:22:00,
2013-05-09 23:28:00,60.4,55.3,28.88,NNW,332,0.0,0.0,83,0.00,,---,0.16,VWS V13.01,2013-05-10 04:28:00,
2013-05-09 23:33:00,60.3,55.1,28.88,NW,324,0.0,2.7,83,0.00,,---,0.16,VWS V13.01,2013-05-10 04:33:00,
2013-05-09 23:39:00,60.3,55.1,28.88,NNW,331,0.0,0.0,83,0.00,,---,0.16,VWS V13.01,2013-05-10 04:39:00,
2013-05-09 23:44:00,60.3,55.1,28.88,NW,324,0.0,3.1,83,0.00,,---,0.16,VWS V13.01,2013-05-10 04:44:00,
2013-05-09 23:49:00,60.1,54.9,28.88,NW,324,2.7,2.7,83,0.00,,---,0.16,VWS V13.01,2013-05-10 04:49:00,
2013-05-09 23:54:00,60.1,54.9,28.88,WNW,293,0.0,6.3,83,0.00,,---,0.16,VWS V13.01,2013-05-10 04:54:00,